Página principal
METAR-TAF:

METAR-TAF

Aeroportos :

Podor, Senegal

latitude: 16-39N, longitude: 014-58W, altura: 6 m

Observação actual do tempo

O boletim foi feito há 2 horas e 0 minutos, às 03:00 UTC
Vento 6 kt de sudoeste
Temperatura 26°C
Humidade 61%
Pressão 1009 hPa
Visibilidade 10 km ou mais
sem nuvens abaixo de 1500 metros e sem cumulonimbus

METAR: GOSP 230300Z 22006KT CAVOK 26/18 Q1009

Hora: 05:00 (05:00 UTC)


TAF: em falta

Observações e previsões do tempo de mais de 4000 aeroportos (mensagens METAR e TAF).

As estações disponíveis são os pontos amarelos e vermelhos sobre o mapa.

Mova o rato sobre o mapa para ver o nome da estação.

Depois clique no ponto para visualizar as observações e previsões meteorológicas.

Para alterar o mapa : clique nos botões verdes com uma cruz preta para aumentar o zoom; no botão verde com uma pitada de zoom; ou nas setas verdes para mapas adjacentes.


METAR-TAF: